Time;durP1;ratioP1;P1;durP2;ratioP2;P2;SDS_P1;SDS_P2;PMS_P1;PMS_P2;Temp;Humidity;BMP_temperature;BMP_pressure;BME280_temperature;BME280_humidity;BME280_pressure;Samples;Min_cycle;Max_cycle;Signal;HPM_P1;HPM_P2
2023/07/24 00:01:58;;;;;;;4.43;4.03;;;;;;;20.07;67.88;100020.25;4902692;29;20483;-81
2023/07/24 00:04:45;;;;;;;7.03;4.60;;;;;;;20.14;67.62;100025.44;4918981;29;20464;-82
2023/07/24 00:07:17;;;;;;;5.03;4.53;;;;;;;20.16;67.39;100029.50;4922193;29;20437;-81
2023/07/24 00:10:15;;;;;;;5.07;4.57;;;;;;;20.24;67.21;100020.66;4930269;29;20500;-82
2023/07/24 00:12:47;;;;;;;5.60;5.03;;;;;;;20.18;68.56;100024.56;4921310;29;20931;-82
2023/07/24 00:15:17;;;;;;;7.23;4.13;;;;;;;20.12;68.70;100022.97;4916129;29;20443;-83
2023/07/24 00:17:50;;;;;;;6.80;4.47;;;;;;;20.08;69.11;100021.06;4917844;29;20531;-83
2023/07/24 00:20:44;;;;;;;5.17;4.20;;;;;;;20.04;69.08;100014.50;4915761;29;20537;-83
2023/07/24 00:23:23;;;;;;;5.20;3.60;;;;;;;19.94;69.79;100010.72;4914918;29;20436;-83
2023/07/24 00:26:06;;;;;;;6.27;4.80;;;;;;;19.99;69.45;100009.06;4922676;29;20419;-83
2023/07/24 00:28:38;;;;;;;4.20;3.67;;;;;;;20.00;69.20;100008.75;4920147;29;20800;-83
2023/07/24 00:31:37;;;;;;;5.43;4.07;;;;;;;20.00;69.21;100018.91;4923418;29;20459;-82
2023/07/24 00:34:09;;;;;;;7.67;3.97;;;;;;;19.90;69.54;100008.81;4920047;29;20449;-82
2023/07/24 00:36:47;;;;;;;3.57;3.10;;;;;;;19.89;69.05;100004.47;4920967;29;20525;-82
2023/07/24 00:39:41;;;;;;;5.50;3.87;;;;;;;19.91;68.66;100005.78;4918201;29;20513;-81
2023/07/24 00:42:12;;;;;;;5.43;4.93;;;;;;;19.91;68.33;99994.00;4919173;29;20445;-83
2023/07/24 00:44:45;;;;;;;6.10;4.10;;;;;;;19.89;68.52;99996.22;4916797;29;20517;-82
2023/07/24 00:47:29;;;;;;;4.30;3.83;;;;;;;19.84;68.29;99993.50;4923481;29;20440;-81
2023/07/24 00:50:20;;;;;;;7.33;4.50;;;;;;;19.89;68.09;99996.22;4929641;29;20422;-83
2023/07/24 00:53:23;;;;;;;;;;;;;;;;;;;;;
2023/07/24 00:56:17;;;;;;;5.67;5.07;;;;;;;19.82;68.36;99990.22;4916188;29;20505;-82
2023/07/24 00:59:08;;;;;;;4.93;4.43;;;;;;;19.91;67.84;99978.34;4927277;29;20462;-79
2023/07/24 01:01:42;;;;;;;5.20;3.60;;;;;;;19.88;67.86;99981.66;4921724;29;20434;-79
2023/07/24 01:04:23;;;;;;;4.37;3.97;;;;;;;19.75;68.75;99984.25;4927784;29;20405;-83
2023/07/24 01:07:23;;;;;;;3.93;3.53;;;;;;;19.73;68.90;99969.97;4923375;29;20467;-84
2023/07/24 01:18:33;;;;;;;3.73;3.40;;;;;;;19.50;69.85;99960.50;4875051;29;20800;-82
2023/07/24 01:21:54;;;;;;;4.47;4.07;;;;;;;19.41;69.94;99952.00;4922932;28;20455;-82
2023/07/24 01:32:31;;;;;;;4.43;3.80;;;;;;;19.64;68.83;99952.47;4902876;29;20436;-83
2023/07/24 01:36:18;;;;;;;7.50;4.30;;;;;;;19.57;68.89;99947.28;4917867;29;20454;-81
2023/07/24 01:39:02;;;;;;;8.50;4.73;;;;;;;19.67;68.41;99949.97;4926724;28;20454;-82
2023/07/24 01:46:26;;;;;;;4.27;3.20;;;;;;;19.70;68.74;99954.06;4930013;29;20437;-83
2023/07/24 01:49:10;;;;;;;4.77;4.20;;;;;;;19.77;68.80;99944.41;4850986;29;20560;-82
2023/07/24 01:52:12;;;;;;;4.40;3.30;;;;;;;19.88;68.46;99943.22;4953227;29;20477;-83
2023/07/24 01:55:48;;;;;;;7.30;3.80;;;;;;;19.89;68.93;99941.31;4929774;29;20455;-83
2023/07/24 02:02:21;;;;;;;5.07;4.10;;;;;;;19.99;68.61;99934.91;4860923;29;20850;-83
2023/07/24 02:05:30;;;;;;;5.27;3.47;;;;;;;19.96;69.16;99925.31;4840344;29;20790;-83
2023/07/24 02:08:52;;;;;;;;;;;;;;;;;;;;;
2023/07/24 02:11:55;;;;;;;3.50;2.90;;;;;;;20.02;69.21;99928.84;4914870;29;20478;-83
2023/07/24 02:14:33;;;;;;;5.10;4.20;;;;;;;20.09;68.87;99923.84;4917561;29;20472;-83
2023/07/24 02:17:12;;;;;;;4.50;3.53;;;;;;;19.94;69.35;99927.53;4918758;29;20408;-82
2023/07/24 02:19:42;;;;;;;4.47;3.40;;;;;;;20.10;68.17;99920.78;4916631;29;20436;-82
2023/07/24 02:22:26;;;;;;;5.37;3.80;;;;;;;20.01;69.17;99927.19;4928928;29;20444;-82
2023/07/24 02:25:01;;;;;;;4.93;4.37;;;;;;;19.96;68.85;99915.16;4924331;29;20467;-81
2023/07/24 02:27:46;;;;;;;4.20;3.10;;;;;;;19.84;69.14;99911.97;4919136;29;20476;-83
2023/07/24 02:30:33;;;;;;;4.83;3.60;;;;;;;19.89;69.31;99916.59;4909720;29;20424;-83
2023/07/24 02:33:10;;;;;;;5.40;3.47;;;;;;;19.87;69.14;99914.13;4914660;29;20855;-80
2023/07/24 02:35:43;;;;;;;5.70;4.00;;;;;;;19.82;69.22;99910.59;4913836;29;20444;-81
2023/07/24 02:38:14;;;;;;;4.47;2.93;;;;;;;19.88;68.88;99914.94;4923778;29;20433;-82
2023/07/24 02:40:55;;;;;;;5.03;3.23;;;;;;;19.79;69.15;99913.94;4915116;29;20492;-81
2023/07/24 02:43:24;;;;;;;5.40;4.17;;;;;;;19.89;69.19;99913.84;4919643;29;20405;-83
2023/07/24 02:45:54;;;;;;;5.40;3.93;;;;;;;19.93;68.26;99915.72;4936166;29;20536;-83
2023/07/24 02:48:36;;;;;;;4.37;3.50;;;;;;;19.98;68.49;99925.84;4921670;29;20461;-84
2023/07/24 02:51:14;;;;;;;4.17;3.40;;;;;;;19.93;68.99;99925.91;4919409;29;20513;-82
2023/07/24 02:53:46;;;;;;;3.97;3.57;;;;;;;19.89;69.54;99936.63;4906746;29;20416;-82
2023/07/24 02:56:39;;;;;;;;;;;;;;;;;;;;;
2023/07/24 02:59:36;;;;;;;3.90;3.30;;;;;;;19.93;69.55;99945.94;4921845;29;20439;-83
2023/07/24 03:02:17;;;;;;;4.30;3.90;;;;;;;20.00;69.77;99947.50;4918208;29;20412;-80
2023/07/24 03:04:46;;;;;;;3.90;3.10;;;;;;;20.02;69.77;99957.13;4930189;29;20469;-81
2023/07/24 03:07:15;;;;;;;5.90;3.77;;;;;;;20.04;69.66;99946.69;4919481;29;20481;-80
2023/07/24 03:10:10;;;;;;;5.97;3.00;;;;;;;20.01;70.72;99955.47;4936586;28;20407;-81
2023/07/24 03:13:17;;;;;;;4.00;3.40;;;;;;;20.04;71.14;99960.41;4912718;28;20440;-82
2023/07/24 03:16:02;;;;;;;4.97;3.03;;;;;;;19.93;71.83;99951.44;4940993;28;20443;-82
2023/07/24 03:18:49;;;;;;;4.23;3.37;;;;;;;20.02;72.25;99948.88;4944499;28;20495;-82
2023/07/24 03:21:29;;;;;;;3.63;3.10;;;;;;;20.02;71.30;99954.38;4951620;29;20462;-83
2023/07/24 03:24:38;;;;;;;4.00;2.90;;;;;;;19.86;72.39;99952.84;4926994;29;20514;-82
2023/07/24 03:27:17;;;;;;;5.03;3.47;;;;;;;19.93;72.13;99953.34;4933472;29;20445;-80
2023/07/24 03:30:22;;;;;;;5.83;4.00;;;;;;;20.01;72.34;99952.72;4958010;28;20440;-82
2023/07/24 03:36:41;;;;;;;3.27;2.90;;;;;;;20.03;72.21;99952.44;4888488;29;20470;-82
2023/07/24 03:39:33;;;;;;;5.13;3.70;;;;;;;20.08;72.67;99955.16;4938779;29;20994;-82
2023/07/24 03:42:04;;;;;;;5.10;2.90;;;;;;;20.15;72.86;99950.97;4936384;29;20452;-82
2023/07/24 03:44:35;;;;;;;4.60;3.13;;;;;;;20.13;75.62;99961.44;4933489;29;20412;-81
2023/07/24 03:47:14;;;;;;;3.17;2.67;;;;;;;20.05;78.16;99970.25;4938108;29;20403;-82
2023/07/24 03:50:32;;;;;;;5.53;3.10;;;;;;;19.81;83.31;99972.09;4903432;29;20607;-83
2023/07/24 03:53:18;;;;;;;6.50;3.40;;;;;;;19.46;87.69;99960.22;4937670;29;20407;-81
2023/07/24 04:08:05;;;;;;;3.83;3.33;;;;;;;19.13;93.52;99955.44;4927851;29;20542;-82
2023/07/24 04:14:55;;;;;;;3.83;3.07;;;;;;;19.32;93.23;99948.22;4934718;29;20410;-82
2023/07/24 04:22:43;;;;;;;3.90;2.60;;;;;;;19.32;93.03;99948.22;4803518;29;20425;-81
2023/07/24 04:25:26;;;;;;;4.63;2.70;;;;;;;19.36;93.45;99945.75;4815763;29;20486;-83
2023/07/24 04:27:55;;;;;;;3.13;2.80;;;;;;;19.40;93.94;99955.88;4861902;29;20543;-82
2023/07/24 04:34:24;;;;;;;3.50;2.77;;;;;;;19.59;93.57;99941.50;4733812;30;20449;-82
2023/07/24 04:48:39;;;;;;;9.63;7.20;;;;;;;20.04;92.30;99957.66;4623214;30;20494;-81
2023/07/24 04:52:22;;;;;;;3.30;2.40;;;;;;;20.05;90.50;99945.56;4753950;29;20452;-81
2023/07/24 04:55:04;;;;;;;4.50;2.80;;;;;;;20.21;90.04;99944.31;4863029;29;20870;-81
2023/07/24 04:58:30;;;;;;;2.40;2.13;;;;;;;20.37;88.93;99943.13;4864323;29;20496;-82
2023/07/24 05:01:26;;;;;;;2.87;2.40;;;;;;;20.43;87.66;99948.56;4923937;29;20448;-82
2023/07/24 05:23:15;;;;;;;2.43;2.10;;;;;;;26.29;61.36;99927.50;4815479;29;20439;-81
2023/07/24 05:26:47;;;;;;;2.97;2.37;;;;;;;28.26;53.22;99935.03;4876760;29;20444;-80
2023/07/24 05:29:55;;;;;;;2.30;1.87;;;;;;;27.65;54.36;99929.16;4861359;29;20459;-79
2023/07/24 05:37:34;;;;;;;3.57;2.83;;;;;;;24.83;61.66;99919.03;4881274;29;20499;-81
2023/07/24 05:40:28;;;;;;;2.63;2.30;;;;;;;24.09;65.47;99920.72;4848652;29;20432;-82
2023/07/24 05:43:17;;;;;;;6.73;2.30;;;;;;;23.57;67.69;99919.50;4865467;29;20492;-81
2023/07/24 05:52:51;;;;;;;3.07;2.77;;;;;;;23.02;68.24;99908.53;4951325;29;20418;-82
2023/07/24 05:55:34;;;;;;;3.90;2.97;;;;;;;23.04;68.24;99899.97;4949448;29;20527;-81
2023/07/24 05:59:09;;;;;;;2.97;2.10;;;;;;;22.88;69.29;99903.03;4957484;28;20430;-83
2023/07/24 06:01:53;;;;;;;2.87;2.57;;;;;;;22.80;68.89;99892.69;4937690;29;20430;-83
2023/07/24 06:04:23;;;;;;;4.00;2.27;;;;;;;22.78;69.42;99886.69;4951751;29;20440;-83
2023/07/24 06:07:19;;;;;;;3.40;2.10;;;;;;;22.98;69.27;99895.66;4950075;29;20483;-82
2023/07/24 06:10:14;;;;;;;1.93;1.73;;;;;;;23.40;68.11;99884.22;4940947;29;20486;-82
2023/07/24 06:13:07;;;;;;;2.50;2.23;;;;;;;23.29;67.22;99885.59;4938097;29;20916;-82
2023/07/24 06:16:12;;;;;;;3.60;2.50;;;;;;;23.48;68.28;99878.00;4935929;29;20843;-82
2023/07/24 06:23:48;;;;;;;3.37;3.07;;;;;;;23.44;66.11;99876.97;4941279;29;20439;-83
2023/07/24 06:26:53;;;;;;;3.73;2.73;;;;;;;23.28;66.33;99875.69;4945043;29;20435;-82
2023/07/24 06:29:31;;;;;;;3.13;2.70;;;;;;;23.12;66.31;99882.66;4936591;29;20509;-82
2023/07/24 06:32:08;;;;;;;4.10;2.30;;;;;;;23.20;65.28;99877.22;4930772;29;20454;-81
2023/07/24 06:34:47;;;;;;;6.47;2.47;;;;;;;23.18;65.65;99868.47;4942282;29;20432;-80
2023/07/24 06:38:11;;;;;;;3.87;3.47;;;;;;;23.39;65.57;99868.78;4928222;29;20626;-82
2023/07/24 06:40:41;;;;;;;5.40;2.30;;;;;;;23.32;64.74;99873.94;4930391;29;20452;-82
2023/07/24 06:55:21;;;;;;;3.37;2.47;;;;;;;23.57;64.05;99854.06;4826882;29;20468;-81
2023/07/24 07:07:02;;;;;;;4.83;3.00;;;;;;;23.82;62.70;99839.59;4858694;29;20460;-81
2023/07/24 07:10:03;;;;;;;4.60;2.77;;;;;;;23.94;61.40;99840.97;4860538;29;20496;-81
2023/07/24 07:12:40;;;;;;;3.50;3.07;;;;;;;23.77;61.71;99836.94;4864729;29;20457;-81
2023/07/24 07:15:51;;;;;;;;;;;;;;;;;;;;;
2023/07/24 07:26:43;;;;;;;3.30;3.00;;;;;;;24.50;59.30;99820.94;4921936;28;20508;-81
2023/07/24 07:29:39;;;;;;;3.03;2.60;;;;;;;24.90;57.51;99821.72;4919550;29;20498;-81
2023/07/24 07:40:24;;;;;;;;;;;;;;;;;;;;;
2023/07/24 07:44:17;;;;;;;3.47;3.07;;;;;;;25.54;54.05;99839.34;4973781;28;20430;-81
2023/07/24 07:47:21;;;;;;;3.20;2.57;;;;;;;25.59;54.10;99847.53;4980541;28;20418;-81
2023/07/24 07:54:21;;;;;;;3.00;2.70;;;;;;;26.22;52.90;99849.56;4909593;29;20443;-83
2023/07/24 08:10:18;;;;;;;3.10;2.20;;;;;;;26.64;50.23;99838.59;4946890;29;20461;-83
2023/07/24 08:13:33;;;;;;;3.23;2.80;;;;;;;27.47;47.97;99835.94;4942852;29;20411;-84
2023/07/24 08:16:07;;;;;;;3.43;3.13;;;;;;;27.83;47.69;99846.44;4923480;29;20482;-84
2023/07/24 08:19:01;;;;;;;4.20;2.50;;;;;;;27.82;46.68;99828.94;4925191;29;20476;-81
2023/07/24 08:22:02;;;;;;;2.50;2.30;;;;;;;27.91;45.80;99826.88;4939936;29;20482;-82
2023/07/24 08:24:59;;;;;;;3.20;2.90;;;;;;;27.66;45.96;99819.63;4929430;29;20413;-83
2023/07/24 08:27:29;;;;;;;3.30;2.83;;;;;;;27.92;45.00;99817.41;4941148;29;20432;-82
2023/07/24 08:30:00;;;;;;;6.93;3.07;;;;;;;28.15;45.37;99820.59;4927521;29;20411;-83
2023/07/24 08:32:29;;;;;;;3.67;2.97;;;;;;;28.64;43.98;99815.88;4947149;29;20433;-81
2023/07/24 08:35:05;;;;;;;3.43;3.13;;;;;;;28.93;44.00;99807.31;4942574;29;20475;-84
2023/07/24 08:37:44;;;;;;;4.17;3.53;;;;;;;28.72;43.19;99812.19;4927012;29;20483;-82
2023/07/24 08:40:42;;;;;;;3.60;2.87;;;;;;;28.08;44.32;99807.22;4949795;29;20866;-82
2023/07/24 08:43:27;;;;;;;3.03;2.63;;;;;;;27.90;44.48;99803.00;4914797;29;20486;-82
2023/07/24 08:46:17;;;;;;;4.40;3.57;;;;;;;27.78;44.87;99783.53;4942041;29;20429;-82
2023/07/24 08:48:47;;;;;;;7.23;4.20;;;;;;;27.73;44.80;99786.53;4929311;29;20678;-80
2023/07/24 08:51:18;;;;;;;6.90;4.80;;;;;;;27.71;44.96;99785.25;4941434;29;20458;-81
2023/07/24 08:53:48;;;;;;;4.53;3.53;;;;;;;27.78;45.03;99788.28;4946537;29;20428;-80
2023/07/24 08:56:18;;;;;;;7.33;3.90;;;;;;;27.65;46.21;99784.63;4948645;29;20428;-81
2023/07/24 08:58:56;;;;;;;7.00;4.80;;;;;;;27.17;47.26;99774.91;4951846;29;20447;-80
2023/07/24 09:01:33;;;;;;;6.60;3.40;;;;;;;27.37;46.51;99773.28;4949435;29;20424;-81
2023/07/24 09:04:20;;;;;;;6.40;2.60;;;;;;;27.42;46.14;99763.91;4942715;29;20555;-81
2023/07/24 09:06:50;;;;;;;4.07;2.87;;;;;;;27.84;45.40;99759.09;4952242;29;20435;-82
2023/07/24 09:09:23;;;;;;;3.73;3.43;;;;;;;27.67;44.98;99766.47;4949235;29;20427;-81
2023/07/24 09:11:54;;;;;;;3.93;3.30;;;;;;;27.81;45.80;99749.50;4949605;29;20437;-82
2023/07/24 09:14:34;;;;;;;2.93;2.33;;;;;;;27.90;45.46;99752.16;4947124;29;20519;-81
2023/07/24 09:17:07;;;;;;;3.93;3.37;;;;;;;27.89;46.38;99767.22;4945149;29;20414;-81
2023/07/24 09:19:37;;;;;;;2.40;1.97;;;;;;;27.78;45.45;99755.75;4942621;29;20479;-82
2023/07/24 09:22:30;;;;;;;3.40;2.53;;;;;;;27.43;46.04;99751.66;4923376;29;20444;-82
2023/07/24 09:25:05;;;;;;;2.73;2.53;;;;;;;27.64;45.65;99746.91;4946066;29;20786;-82
2023/07/24 09:30:52;;;;;;;6.07;2.77;;;;;;;28.12;46.02;99742.63;4943406;29;20460;-83
2023/07/24 09:34:28;;;;;;;6.43;3.70;;;;;;;27.94;45.93;99745.56;4940637;29;20444;-80
2023/07/24 09:37:26;;;;;;;3.20;2.90;;;;;;;27.94;45.83;99731.66;4949821;29;20461;-81
2023/07/24 09:40:19;;;;;;;4.23;3.43;;;;;;;28.01;45.60;99754.16;4950455;29;20574;-82
2023/07/24 09:43:24;;;;;;;3.00;2.53;;;;;;;27.95;44.76;99752.75;4941637;29;20882;-83
2023/07/24 09:54:17;;;;;;;4.30;3.37;;;;;;;28.63;43.46;99753.03;4852779;29;20573;-83
2023/07/24 09:57:32;;;;;;;3.73;3.20;;;;;;;28.69;43.71;99739.69;4954800;29;20487;-83
2023/07/24 10:00:14;;;;;;;8.13;3.43;;;;;;;28.22;43.85;99737.41;4949128;29;20487;-81
2023/07/24 10:06:52;;;;;;;4.17;2.67;;;;;;;28.75;43.28;99722.44;4965379;28;20444;-82
2023/07/24 10:09:37;;;;;;;4.77;2.97;;;;;;;28.73;43.84;99715.56;4953518;28;20459;-84
2023/07/24 10:12:30;;;;;;;3.83;2.70;;;;;;;28.91;43.38;99703.00;4944566;29;20464;-82
2023/07/24 10:15:45;;;;;;;3.30;3.00;;;;;;;28.98;42.58;99702.41;4930761;29;20460;-81
2023/07/24 10:18:37;;;;;;;4.70;4.20;;;;;;;28.95;42.24;99681.63;4929625;29;20502;-83
2023/07/24 10:21:09;;;;;;;4.30;3.27;;;;;;;29.05;41.76;99680.34;4956931;29;20433;-81
2023/07/24 10:23:55;;;;;;;4.40;3.23;;;;;;;28.88;42.04;99676.69;4952818;29;20519;-80
2023/07/24 10:26:37;;;;;;;4.23;3.60;;;;;;;29.32;41.41;99673.97;4953797;29;20424;-82
2023/07/24 10:29:08;;;;;;;6.03;3.80;;;;;;;29.79;40.50;99671.22;4969544;29;20444;-81
2023/07/24 10:32:07;;;;;;;4.47;3.53;;;;;;;29.87;40.17;99681.38;4957732;29;20448;-80
2023/07/24 10:38:56;;;;;;;4.83;3.67;;;;;;;29.28;39.75;99659.09;4889117;29;20600;-81
2023/07/24 10:52:04;;;;;;;5.30;4.03;;;;;;;29.55;39.96;99635.16;4838944;29;20553;-81
2023/07/24 10:59:24;;;;;;;6.07;4.70;;;;;;;29.93;38.77;99609.44;4906626;29;20484;-80
2023/07/24 11:01:54;;;;;;;8.93;4.80;;;;;;;29.82;38.72;99611.16;4913993;29;20429;-80
2023/07/24 11:05:01;;;;;;;5.00;3.83;;;;;;;30.21;37.70;99610.09;4907091;29;20528;-82
2023/07/24 11:09:00;;;;;;;;;;;;;;;;;;;;;
2023/07/24 11:11:44;;;;;;;7.53;5.40;;;;;;;30.76;36.08;99596.94;4905692;29;20433;-83
2023/07/24 11:14:23;;;;;;;5.93;4.70;;;;;;;30.75;36.83;99598.94;4891327;29;20447;-82
2023/07/24 11:21:28;;;;;;;;;;;;;;;;;;;;;
2023/07/24 11:24:50;;;;;;;14.37;8.77;;;;;;;29.17;38.54;99571.63;4953805;28;20467;-81
2023/07/24 11:27:21;;;;;;;10.80;6.70;;;;;;;29.31;38.51;99574.81;4965783;28;20444;-81
2023/07/24 11:30:35;;;;;;;10.17;5.23;;;;;;;29.47;37.93;99566.47;4949844;28;20443;-82
2023/07/24 11:33:40;;;;;;;7.93;5.63;;;;;;;29.46;37.50;99556.47;4961855;28;20448;-83
2023/07/24 11:36:47;;;;;;;6.27;4.53;;;;;;;28.85;37.83;99540.94;4939125;29;20508;-81
2023/07/24 11:43:53;;;;;;;5.57;5.07;;;;;;;29.39;37.89;99545.19;4887717;29;20454;-80
2023/07/24 11:47:06;;;;;;;10.40;6.07;;;;;;;29.80;37.71;99539.81;4865106;29;20463;-82
2023/07/24 11:49:36;;;;;;;7.80;5.07;;;;;;;29.72;37.09;99526.06;4882031;29;20516;-82
2023/07/24 11:52:21;;;;;;;9.87;5.93;;;;;;;29.25;37.86;99528.84;4882295;29;20506;-83
2023/07/24 11:55:00;;;;;;;9.30;5.63;;;;;;;29.07;38.45;99530.38;4881367;29;20530;-81
2023/07/24 11:57:42;;;;;;;7.90;4.83;;;;;;;29.23;38.57;99543.16;4939133;29;20433;-85
2023/07/24 12:00:37;;;;;;;7.63;6.03;;;;;;;29.12;38.82;99525.34;4923353;29;20480;-82
2023/07/24 12:07:02;;;;;;;6.73;6.00;;;;;;;28.49;39.91;99538.31;4942964;29;20471;-82
2023/07/24 12:13:24;;;;;;;9.40;5.60;;;;;;;27.50;41.91;99566.59;4919462;29;20420;-83
2023/07/24 12:18:59;;;;;;;7.40;5.93;;;;;;;25.99;48.75;99612.53;4906291;29;1253353;-81
2023/07/24 12:21:35;;;;;;;8.40;6.40;;;;;;;25.08;54.01;99618.53;4957514;29;20453;-83
2023/07/24 12:28:11;;;;;;;6.47;5.00;;;;;;;22.52;70.20;99620.88;4771359;30;20469;-82
2023/07/24 12:46:44;;;;;;;6.73;5.50;;;;;;;23.54;70.43;99605.34;4820467;29;20421;-83
2023/07/24 12:50:47;;;;;;;8.57;6.33;;;;;;;24.06;68.78;99604.34;4833705;29;20524;-83
2023/07/24 12:54:40;;;;;;;7.03;5.37;;;;;;;24.46;66.74;99594.03;4850177;29;20504;-83
2023/07/24 13:01:58;;;;;;;9.47;5.30;;;;;;;24.58;65.44;99602.50;4810488;29;20463;-83
2023/07/24 13:14:58;;;;;;;;;;;;;;;;;;;;;
2023/07/24 13:26:20;;;;;;;7.27;5.30;;;;;;;24.68;69.56;99563.44;4817554;29;20611;-82
2023/07/24 13:43:40;;;;;;;6.27;5.00;;;;;;;25.67;63.18;99527.28;5159794;27;20306;-82
2023/07/24 13:46:24;;;;;;;6.00;4.50;;;;;;;25.98;62.14;99533.28;5131056;28;20448;-81
2023/07/24 13:49:19;;;;;;;5.80;4.80;;;;;;;26.25;61.82;99535.53;5119437;28;20500;-82
2023/07/24 13:51:58;;;;;;;6.37;4.77;;;;;;;26.64;60.33;99533.41;5120023;27;20432;-83
2023/07/24 13:54:56;;;;;;;6.70;4.27;;;;;;;26.66;59.58;99525.56;5120954;27;20504;-82
2023/07/24 13:57:44;;;;;;;6.43;5.40;;;;;;;26.63;59.29;99515.94;5128329;27;20413;-83
2023/07/24 14:05:40;;;;;;;;;;;;;;;;;;;;;
2023/07/24 14:13:33;;;;;;;5.40;3.93;;;;;;;26.25;58.19;99493.97;5109167;28;20481;-82
2023/07/24 14:24:32;;;;;;;5.07;4.00;;;;;;;26.20;58.61;99477.50;5130206;28;20454;-82
2023/07/24 14:35:19;;;;;;;4.80;4.30;;;;;;;26.95;56.54;99472.69;5096876;28;20982;-82
2023/07/24 14:38:51;;;;;;;6.10;4.53;;;;;;;27.13;55.80;99468.53;5115929;27;20478;-82
2023/07/24 14:41:40;;;;;;;10.40;4.80;;;;;;;27.27;54.45;99467.38;5092343;28;20472;-81
2023/07/24 14:44:36;;;;;;;5.37;4.20;;;;;;;26.98;55.02;99476.75;5100113;28;20441;-81
2023/07/24 14:47:57;;;;;;;6.67;5.17;;;;;;;27.30;56.28;99481.41;5101128;28;20464;-82
2023/07/24 14:50:39;;;;;;;6.87;4.70;;;;;;;27.24;55.27;99464.16;5088769;28;20469;-82
2023/07/24 14:53:51;;;;;;;7.07;4.70;;;;;;;27.22;55.40;99460.09;5090146;28;20450;-81
2023/07/24 14:56:28;;;;;;;5.47;4.80;;;;;;;26.95;54.96;99449.69;5081527;28;20469;-83
2023/07/24 14:59:19;;;;;;;11.93;5.27;;;;;;;26.96;56.08;99431.88;5100629;28;20477;-82
2023/07/24 15:01:49;;;;;;;16.53;4.60;;;;;;;26.79;54.66;99424.53;5084744;28;20499;-82
2023/07/24 15:04:28;;;;;;;6.67;5.40;;;;;;;26.61;55.37;99423.13;5099826;28;20430;-82
2023/07/24 15:07:02;;;;;;;11.20;5.10;;;;;;;26.20;53.17;99413.72;5106119;28;20433;-83
2023/07/24 15:13:12;;;;;;;6.93;6.23;;;;;;;26.34;52.56;99403.16;5101232;28;20421;-82
2023/07/24 15:15:47;;;;;;;8.93;7.33;;;;;;;26.41;52.69;99407.34;5099853;28;20840;-82
2023/07/24 15:18:22;;;;;;;6.40;5.70;;;;;;;26.48;52.23;99402.84;5089169;28;20487;-82
2023/07/24 15:21:04;;;;;;;7.87;7.07;;;;;;;26.94;50.98;99392.53;5099522;28;20448;-82
2023/07/24 15:23:37;;;;;;;7.43;6.07;;;;;;;27.17;50.53;99383.38;5065165;28;20448;-82
2023/07/24 15:26:07;;;;;;;8.03;6.53;;;;;;;27.34;49.07;99387.88;5099627;28;20433;-82
2023/07/24 15:28:45;;;;;;;8.13;6.00;;;;;;;27.67;48.13;99382.16;5103515;28;20479;-80
2023/07/24 15:31:25;;;;;;;9.13;6.73;;;;;;;27.71;48.27;99376.72;5079461;28;20437;-82
2023/07/24 15:40:37;;;;;;;6.00;5.40;;;;;;;28.13;46.40;99382.72;5026273;28;20431;-82
2023/07/24 15:43:16;;;;;;;7.53;6.43;;;;;;;28.00;46.69;99379.94;5103642;28;20481;-82
2023/07/24 15:46:06;;;;;;;13.10;10.40;;;;;;;27.93;46.72;99379.75;5119068;28;20478;-80
2023/07/24 15:48:45;;;;;;;8.03;7.13;;;;;;;28.14;46.98;99362.88;5116843;28;20546;-80
2023/07/24 15:51:21;;;;;;;8.63;6.50;;;;;;;28.46;46.44;99360.97;5121414;28;20450;-82
2023/07/24 15:57:28;;;;;;;8.53;6.67;;;;;;;29.13;44.43;99356.28;5073736;28;20541;-83
2023/07/24 16:00:10;;;;;;;9.23;5.67;;;;;;;29.00;44.87;99350.00;5099256;28;20456;-80
2023/07/24 16:06:05;;;;;;;5.73;5.10;;;;;;;28.12;47.34;99358.84;5085918;28;20466;-80
2023/07/24 16:08:37;;;;;;;31.37;12.60;;;;;;;27.63;47.77;99347.91;5088613;28;21011;-82
2023/07/24 16:11:19;;;;;;;24.73;9.10;;;;;;;27.48;47.41;99345.84;5113338;28;20468;-81
2023/07/24 16:13:59;;;;;;;5.87;5.10;;;;;;;27.38;48.83;99346.34;5116442;28;20420;-81
2023/07/24 16:43:10;;;;;;;7.10;6.40;;;;;;;26.52;50.84;99325.34;5109743;28;20476;-81
2023/07/24 16:45:50;;;;;;;6.80;4.63;;;;;;;26.08;51.99;99321.41;5095765;28;20421;-81
2023/07/24 16:49:51;;;;;;;6.60;4.50;;;;;;;25.02;56.39;99329.31;5110092;28;20449;-81
2023/07/24 16:52:49;;;;;;;4.70;3.40;;;;;;;24.09;60.20;99332.09;5095398;28;20858;-82
2023/07/24 16:59:23;;;;;;;3.33;2.23;;;;;;;22.78;65.02;99296.53;5101044;28;20469;-81
2023/07/24 17:02:22;;;;;;;3.30;2.70;;;;;;;22.36;66.54;99297.19;5100493;28;20433;-81
2023/07/24 17:08:34;;;;;;;4.80;2.77;;;;;;;22.07;67.30;99273.69;5107188;28;20453;-81
2023/07/24 17:11:16;;;;;;;2.70;2.40;;;;;;;21.98;68.02;99256.31;5101851;28;20743;-81
2023/07/24 17:14:00;;;;;;;3.27;2.97;;;;;;;21.89;68.58;99235.34;5069594;28;20404;-82
2023/07/24 17:17:03;;;;;;;3.83;3.10;;;;;;;21.75;69.12;99196.91;5106743;28;20449;-80
2023/07/24 17:32:00;;;;;;;9.73;3.60;;;;;;;17.55;100.00;99531.88;4922552;29;20477;-80
2023/07/24 17:34:41;;;;;;;4.10;1.90;;;;;;;16.40;100.00;99392.63;4901405;29;20446;-80
2023/07/24 17:45:08;;;;;;;5.43;3.23;;;;;;;16.78;100.00;99312.78;4995897;28;20412;-79
2023/07/24 17:48:34;;;;;;;4.60;2.70;;;;;;;16.94;100.00;99327.97;4999176;28;20592;-79
2023/07/24 17:56:24;;;;;;;3.97;3.20;;;;;;;17.21;100.00;99365.81;4914827;29;20427;-79
2023/07/24 18:07:48;;;;;;;5.63;4.47;;;;;;;17.39;100.00;99468.25;5001433;28;20447;-81
2023/07/24 18:10:50;;;;;;;8.60;4.70;;;;;;;17.46;100.00;99498.03;5097860;28;20400;-80
2023/07/24 18:27:02;;;;;;;9.90;6.83;;;;;;;17.69;100.00;99561.13;4903250;29;20473;-80
2023/07/24 19:49:48;;;;;;;10.20;8.73;;;;;;;17.16;100.00;99482.56;4763709;30;21014;-86
2023/07/24 21:44:57;;;;;;;11.07;9.60;;;;;;;16.78;100.00;99569.56;5091944;28;20500;-83
2023/07/24 21:47:55;;;;;;;9.80;8.43;;;;;;;16.77;100.00;99573.38;5101197;28;20429;-83
2023/07/24 21:54:19;;;;;;;9.10;8.23;;;;;;;16.57;100.00;99562.41;5057288;28;20443;-84
2023/07/24 21:56:56;;;;;;;10.40;8.87;;;;;;;16.53;100.00;99562.16;5055157;28;20429;-84
2023/07/24 22:00:30;;;;;;;8.00;7.20;;;;;;;16.56;100.00;99576.34;5062139;28;20459;-84
2023/07/24 22:07:15;;;;;;;11.60;8.80;;;;;;;16.35;100.00;99572.81;5060391;28;20394;-82
2023/07/24 22:13:21;;;;;;;9.07;8.03;;;;;;;16.38;100.00;99564.88;5029952;28;20482;-84
2023/07/24 22:16:26;;;;;;;7.93;7.13;;;;;;;16.30;100.00;99572.81;5059010;28;20497;-83
2023/07/24 22:22:21;;;;;;;11.00;7.87;;;;;;;16.22;100.00;99548.75;5051608;28;20413;-82
2023/07/24 22:24:54;;;;;;;11.87;10.00;;;;;;;16.17;100.00;99546.84;5051356;28;20466;-85
2023/07/24 22:28:12;;;;;;;;;;;;;;;;;;;;;
2023/07/24 22:30:52;;;;;;;12.03;7.70;;;;;;;16.00;100.00;99552.56;4972538;28;20497;-84
2023/07/24 22:33:39;;;;;;;10.00;9.00;;;;;;;16.06;100.00;99556.13;4996589;28;20433;-83
2023/07/24 22:36:18;;;;;;;8.50;7.60;;;;;;;15.99;100.00;99550.09;5073657;28;20469;-83
2023/07/24 22:39:10;;;;;;;11.30;7.70;;;;;;;15.96;100.00;99551.47;5053972;28;20417;-84
2023/07/24 22:41:52;;;;;;;8.17;7.20;;;;;;;15.93;100.00;99568.34;5063107;28;20401;-83
2023/07/24 22:44:57;;;;;;;8.87;8.07;;;;;;;15.92;100.00;99566.75;5079418;28;20440;-83
2023/07/24 22:48:03;;;;;;;8.17;7.37;;;;;;;15.90;100.00;99570.81;5044918;28;20826;-85
2023/07/24 22:50:58;;;;;;;8.90;8.00;;;;;;;15.87;100.00;99585.00;5042439;28;20429;-83
2023/07/24 22:54:20;;;;;;;8.77;7.87;;;;;;;15.79;100.00;99588.22;5063829;28;20409;-86
2023/07/24 22:57:10;;;;;;;10.90;8.80;;;;;;;15.75;100.00;99593.41;5046746;28;20470;-84
2023/07/24 23:00:24;;;;;;;9.30;8.20;;;;;;;15.70;100.00;99589.81;5052165;28;20982;-85
2023/07/24 23:03:45;;;;;;;8.67;7.57;;;;;;;15.77;100.00;99596.69;5050505;28;21000;-83
2023/07/24 23:07:32;;;;;;;9.10;7.57;;;;;;;15.70;100.00;99601.56;5037187;28;20417;-83
2023/07/24 23:11:18;;;;;;;11.00;8.63;;;;;;;15.69;100.00;99602.63;5067150;28;20416;-84
2023/07/24 23:24:09;;;;;;;10.07;7.87;;;;;;;15.65;100.00;99615.16;5064361;28;20470;-84
2023/07/24 23:27:45;;;;;;;14.53;8.30;;;;;;;15.67;100.00;99615.75;5041120;28;20452;-83
2023/07/24 23:30:56;;;;;;;10.00;7.70;;;;;;;15.68;100.00;99620.13;5051407;28;20446;-84
2023/07/24 23:34:16;;;;;;;9.33;8.33;;;;;;;15.69;100.00;99620.91;5055689;28;20473;-83
2023/07/24 23:37:02;;;;;;;10.07;8.60;;;;;;;15.64;100.00;99624.44;5050066;28;20525;-84
2023/07/24 23:39:41;;;;;;;13.07;8.37;;;;;;;15.59;100.00;99627.13;5046578;28;20452;-85